Time;durP1;ratioP1;P1;durP2;ratioP2;P2;SDS_P1;SDS_P2;PMS_P1;PMS_P2;Temp;Humidity;BMP_temperature;BMP_pressure;BME280_temperature;BME280_humidity;BME280_pressure;Samples;Min_cycle;Max_cycle;Signal;HPM_P1;HPM_P2
2023/04/26 00:00:30;;;;;;;26.77;18.15;;;3.00;99.90;;;;;;5017390;28;20045;-79
2023/04/26 00:02:58;;;;;;;23.35;18.67;;;3.00;99.90;;;;;;5016605;28;20050;-76
2023/04/26 00:05:27;;;;;;;19.25;17.27;;;2.90;99.90;;;;;;5010702;28;20459;-76
2023/04/26 00:07:53;;;;;;;24.15;18.50;;;3.00;99.90;;;;;;5022927;28;20589;-77
2023/04/26 00:10:20;;;;;;;30.35;19.38;;;2.90;99.90;;;;;;5024221;28;20042;-75
2023/04/26 00:12:47;;;;;;;33.80;20.05;;;2.90;99.90;;;;;;5015223;28;20639;-76
2023/04/26 00:15:13;;;;;;;24.27;19.35;;;2.80;99.90;;;;;;5015088;28;20056;-76
2023/04/26 00:17:41;;;;;;;29.30;18.92;;;2.80;99.90;;;;;;5011671;28;20042;-77
2023/04/26 00:20:12;;;;;;;24.90;19.77;;;2.80;99.90;;;;;;5018553;28;20747;-77
2023/04/26 00:22:39;;;;;;;25.08;18.85;;;2.70;99.90;;;;;;5014614;28;20754;-76
2023/04/26 00:25:06;;;;;;;33.60;18.80;;;2.60;99.90;;;;;;5025733;28;20045;-77
2023/04/26 00:27:33;;;;;;;24.35;18.77;;;2.60;99.90;;;;;;5020757;28;20088;-77
2023/04/26 00:29:59;;;;;;;27.48;18.52;;;2.60;99.90;;;;;;5019813;28;20140;-77
2023/04/26 00:32:27;;;;;;;21.02;18.63;;;2.70;99.90;;;;;;5008630;28;20052;-77
2023/04/26 00:34:53;;;;;;;22.13;18.48;;;2.70;99.90;;;;;;5019811;28;20042;-77
2023/04/26 00:37:20;;;;;;;19.50;16.92;;;2.80;99.90;;;;;;5004728;28;20042;-77
2023/04/26 00:39:48;;;;;;;32.47;18.98;;;2.70;99.90;;;;;;5010913;28;20038;-76
2023/04/26 00:42:14;;;;;;;20.98;18.77;;;2.60;99.90;;;;;;5009118;28;20176;-77
2023/04/26 00:44:42;;;;;;;25.58;18.52;;;2.50;99.90;;;;;;5023835;28;20524;-77
2023/04/26 00:47:08;;;;;;;27.55;18.35;;;2.60;99.90;;;;;;5013067;28;20454;-77
2023/04/26 00:49:35;;;;;;;20.13;17.95;;;2.60;99.90;;;;;;4999786;28;20410;-77
2023/04/26 00:52:02;;;;;;;19.35;17.30;;;2.60;99.90;;;;;;5009368;28;20048;-77
2023/04/26 00:54:29;;;;;;;19.77;17.27;;;2.50;99.90;;;;;;5018107;28;20059;-77
2023/04/26 00:56:56;;;;;;;29.10;17.48;;;2.50;99.90;;;;;;5016891;28;20040;-77
2023/04/26 00:59:25;;;;;;;20.30;17.15;;;2.50;99.90;;;;;;5019380;28;20040;-77
2023/04/26 01:01:52;;;;;;;27.23;17.67;;;2.50;99.90;;;;;;5019740;28;20064;-77
2023/04/26 01:04:18;;;;;;;21.20;16.88;;;2.60;99.90;;;;;;5005682;28;20046;-77
2023/04/26 01:06:46;;;;;;;21.00;16.77;;;2.60;99.90;;;;;;5016568;28;20057;-76
2023/04/26 01:09:14;;;;;;;24.25;16.35;;;2.70;99.90;;;;;;5007855;28;20151;-77
2023/04/26 01:11:42;;;;;;;25.48;16.45;;;2.60;99.90;;;;;;5017233;28;20095;-77
2023/04/26 01:14:09;;;;;;;18.90;16.40;;;2.70;99.90;;;;;;5022190;28;20598;-77
2023/04/26 01:16:37;;;;;;;24.83;18.40;;;2.60;99.90;;;;;;5007352;28;20042;-77
2023/04/26 01:19:11;;;;;;;25.58;17.50;;;2.60;99.90;;;;;;5015761;28;20060;-77
2023/04/26 01:21:39;;;;;;;23.67;18.10;;;2.60;99.90;;;;;;5008998;28;20496;-76
2023/04/26 01:24:08;;;;;;;22.88;17.70;;;2.60;99.90;;;;;;5000639;28;20056;-77
2023/04/26 01:26:46;;;;;;;20.58;18.48;;;2.60;99.90;;;;;;4998016;28;20140;-76
2023/04/26 01:29:18;;;;;;;25.42;18.40;;;2.60;99.90;;;;;;4999492;28;20438;-77
2023/04/26 01:31:46;;;;;;;27.73;19.65;;;2.50;99.90;;;;;;5016830;28;20604;-76
2023/04/26 01:34:13;;;;;;;21.35;19.10;;;2.40;99.90;;;;;;5014716;28;20403;-75
2023/04/26 01:36:40;;;;;;;25.52;19.42;;;2.30;99.90;;;;;;5000641;28;20501;-77
2023/04/26 01:39:09;;;;;;;25.33;19.25;;;2.20;99.90;;;;;;5010179;28;20577;-75
2023/04/26 01:41:36;;;;;;;22.25;20.08;;;2.10;99.90;;;;;;5014143;28;20034;-75
2023/04/26 01:44:03;;;;;;;25.20;19.90;;;2.00;99.90;;;;;;5002654;28;20128;-76
2023/04/26 01:46:30;;;;;;;23.23;20.08;;;2.00;99.90;;;;;;5018255;28;20045;-76
2023/04/26 01:48:57;;;;;;;22.10;18.30;;;1.90;99.90;;;;;;5000250;28;20442;-77
2023/04/26 01:51:23;;;;;;;25.52;18.95;;;1.90;99.90;;;;;;5014805;28;20045;-78
2023/04/26 01:53:50;;;;;;;21.08;18.40;;;1.80;99.90;;;;;;5024310;28;20206;-77
2023/04/26 01:56:18;;;;;;;21.80;17.35;;;1.80;99.90;;;;;;5012704;28;20137;-77
2023/04/26 01:58:44;;;;;;;28.88;18.90;;;1.70;99.90;;;;;;5025121;28;20507;-78
2023/04/26 02:01:11;;;;;;;22.65;17.83;;;1.70;99.90;;;;;;5004688;28;21043;-77
2023/04/26 02:03:38;;;;;;;21.25;18.23;;;1.70;99.90;;;;;;5028095;28;20135;-77
2023/04/26 02:06:04;;;;;;;23.88;19.02;;;1.60;99.90;;;;;;5020281;28;20041;-76
2023/04/26 02:08:31;;;;;;;27.42;19.20;;;1.60;99.90;;;;;;5008848;28;20047;-76
2023/04/26 02:10:58;;;;;;;25.08;18.88;;;1.60;99.90;;;;;;5023604;28;20758;-76
2023/04/26 02:13:26;;;;;;;21.55;17.85;;;1.60;99.90;;;;;;5021485;28;20096;-75
2023/04/26 02:15:53;;;;;;;22.33;18.10;;;1.50;99.90;;;;;;5000660;28;20042;-76
2023/04/26 02:18:21;;;;;;;26.25;17.90;;;1.40;99.90;;;;;;5022395;28;20034;-77
2023/04/26 02:20:49;;;;;;;31.80;19.17;;;1.40;99.90;;;;;;4994179;28;20064;-77
2023/04/26 02:23:16;;;;;;;20.35;17.85;;;1.30;99.90;;;;;;4997855;28;20041;-77
2023/04/26 02:25:46;;;;;;;24.45;19.40;;;1.20;99.90;;;;;;5028376;28;20047;-77
2023/04/26 02:28:14;;;;;;;25.40;19.20;;;1.10;99.90;;;;;;5028630;28;20050;-77
2023/04/26 02:30:42;;;;;;;27.75;18.63;;;1.10;99.90;;;;;;5015339;28;20084;-76
2023/04/26 02:33:08;;;;;;;22.10;19.45;;;1.20;99.90;;;;;;5013648;28;20051;-77
2023/04/26 02:35:36;;;;;;;31.88;19.98;;;1.00;99.90;;;;;;5010488;28;20045;-76
2023/04/26 02:38:04;;;;;;;26.52;20.23;;;0.90;99.90;;;;;;5020610;28;20044;-76
2023/04/26 02:40:31;;;;;;;23.17;20.25;;;1.00;99.90;;;;;;5025294;28;20100;-75
2023/04/26 02:42:58;;;;;;;26.40;20.10;;;0.90;99.90;;;;;;5001932;28;20143;-76
2023/04/26 02:45:24;;;;;;;29.63;21.23;;;0.90;99.90;;;;;;5026151;28;20073;-77
2023/04/26 02:47:52;;;;;;;26.90;20.33;;;0.80;99.90;;;;;;4998880;28;20041;-77
2023/04/26 02:50:19;;;;;;;29.35;21.10;;;0.80;99.90;;;;;;5013814;28;20064;-76
2023/04/26 02:52:46;;;;;;;33.03;21.73;;;0.70;99.90;;;;;;5017456;28;20038;-76
2023/04/26 02:55:13;;;;;;;31.95;22.15;;;0.60;99.90;;;;;;5015130;28;20059;-76
2023/04/26 02:57:40;;;;;;;28.45;21.10;;;0.60;99.90;;;;;;5021584;28;20068;-76
2023/04/26 03:00:07;;;;;;;33.50;22.08;;;0.50;99.90;;;;;;5007920;28;20095;-77
2023/04/26 03:02:35;;;;;;;26.30;20.42;;;0.50;99.90;;;;;;5014856;28;20815;-76
2023/04/26 03:05:02;;;;;;;37.33;21.90;;;0.50;99.90;;;;;;5013219;28;20038;-76
2023/04/26 03:07:30;;;;;;;30.58;22.67;;;0.50;99.90;;;;;;4995296;28;20049;-77
2023/04/26 03:09:57;;;;;;;25.70;20.27;;;0.50;99.90;;;;;;5010230;28;20141;-77
2023/04/26 03:12:23;;;;;;;35.67;20.92;;;0.50;99.90;;;;;;5015300;28;20530;-77
2023/04/26 03:14:50;;;;;;;28.00;20.90;;;0.40;99.90;;;;;;4997163;28;20042;-77
2023/04/26 03:17:17;;;;;;;31.23;20.60;;;0.50;99.90;;;;;;5010845;28;20163;-77
2023/04/26 03:19:44;;;;;;;33.15;21.23;;;0.50;99.90;;;;;;5006378;28;20606;-76
2023/04/26 03:22:14;;;;;;;32.78;20.70;;;0.50;99.90;;;;;;5014215;28;20042;-76
2023/04/26 03:24:42;;;;;;;31.58;20.05;;;0.50;99.90;;;;;;5020630;28;20048;-77
2023/04/26 03:27:10;;;;;;;33.97;20.48;;;0.50;99.90;;;;;;5022928;28;20081;-79
2023/04/26 03:29:36;;;;;;;30.17;21.10;;;0.50;99.90;;;;;;5015812;28;20042;-78
2023/04/26 03:32:04;;;;;;;36.42;21.45;;;0.50;99.90;;;;;;4998396;28;20057;-77
2023/04/26 03:34:32;;;;;;;31.50;21.55;;;0.50;99.90;;;;;;5017875;28;20483;-78
2023/04/26 03:36:58;;;;;;;36.83;21.70;;;0.40;99.90;;;;;;5019441;28;20046;-77
2023/04/26 03:39:25;;;;;;;32.13;21.90;;;0.30;99.90;;;;;;4999332;28;20614;-75
2023/04/26 03:41:52;;;;;;;37.97;22.45;;;0.30;99.90;;;;;;4997726;28;20046;-79
2023/04/26 03:44:19;;;;;;;38.60;21.85;;;0.50;99.90;;;;;;5020571;28;20429;-76
2023/04/26 03:46:45;;;;;;;40.70;22.40;;;0.60;99.90;;;;;;5010681;28;20402;-76
2023/04/26 03:49:12;;;;;;;36.08;21.25;;;0.60;99.90;;;;;;4993229;28;20046;-78
2023/04/26 03:51:39;;;;;;;39.63;21.27;;;0.60;99.90;;;;;;5014653;28;20507;-78
2023/04/26 03:54:05;;;;;;;43.22;20.60;;;0.60;99.90;;;;;;5021346;28;20045;-77
2023/04/26 03:56:32;;;;;;;35.13;20.58;;;0.50;99.90;;;;;;5014281;28;20072;-77
2023/04/26 03:59:00;;;;;;;32.03;20.10;;;0.70;99.90;;;;;;5016648;28;20073;-76
2023/04/26 04:01:27;;;;;;;28.70;19.63;;;0.80;99.90;;;;;;5018190;28;20052;-77
2023/04/26 04:03:54;;;;;;;33.53;20.00;;;0.70;99.90;;;;;;5001030;28;20060;-76
2023/04/26 04:06:21;;;;;;;37.88;21.00;;;0.40;99.90;;;;;;5001728;28;20034;-76
2023/04/26 04:08:48;;;;;;;41.72;21.27;;;0.30;99.90;;;;;;5024396;28;20084;-77
2023/04/26 04:11:15;;;;;;;37.00;20.77;;;0.30;99.90;;;;;;5001848;28;20037;-76
2023/04/26 04:13:42;;;;;;;32.60;20.80;;;0.30;99.90;;;;;;5005395;28;20095;-76
2023/04/26 04:16:09;;;;;;;38.80;21.65;;;0.30;99.90;;;;;;5020215;28;20132;-76
2023/04/26 04:18:36;;;;;;;35.72;22.25;;;0.40;99.90;;;;;;5024550;28;20415;-76
2023/04/26 04:21:03;;;;;;;38.22;23.50;;;0.60;99.90;;;;;;5014297;28;20095;-76
2023/04/26 04:23:30;;;;;;;32.90;22.48;;;0.50;99.90;;;;;;4996539;28;20042;-77
2023/04/26 04:25:58;;;;;;;35.33;21.98;;;0.40;99.90;;;;;;5018999;28;20048;-76
2023/04/26 04:28:26;;;;;;;43.35;22.75;;;0.60;99.90;;;;;;5002256;28;20494;-76
2023/04/26 04:30:52;;;;;;;44.90;24.05;;;0.40;99.90;;;;;;5018504;28;20087;-77
2023/04/26 04:33:19;;;;;;;39.05;22.73;;;0.30;99.90;;;;;;5015239;28;20447;-77
2023/04/26 04:35:46;;;;;;;36.35;22.30;;;0.30;99.90;;;;;;4992188;28;20046;-76
2023/04/26 04:38:13;;;;;;;31.67;22.50;;;0.30;99.90;;;;;;5013402;28;20049;-77
2023/04/26 04:40:40;;;;;;;40.65;23.65;;;0.30;99.90;;;;;;5013741;28;20045;-77
2023/04/26 04:43:06;;;;;;;39.63;23.50;;;0.40;99.90;;;;;;5028357;28;20458;-76
2023/04/26 04:45:34;;;;;;;43.78;23.67;;;0.50;99.90;;;;;;4989605;28;20045;-77
2023/04/26 04:48:03;;;;;;;41.90;25.20;;;0.50;99.90;;;;;;5006068;28;20563;-77
2023/04/26 04:50:31;;;;;;;39.83;22.95;;;0.60;99.90;;;;;;5014379;28;20053;-77
2023/04/26 04:52:57;;;;;;;38.17;23.15;;;0.60;99.90;;;;;;5013211;28;20132;-76
2023/04/26 04:55:24;;;;;;;32.10;24.38;;;0.80;99.90;;;;;;4995915;28;20149;-76
2023/04/26 04:57:52;;;;;;;39.67;22.98;;;0.80;99.90;;;;;;5005577;28;20068;-75
2023/04/26 05:00:19;;;;;;;49.78;24.25;;;0.70;99.90;;;;;;4997599;28;20566;-76
2023/04/26 05:02:53;;;;;;;37.13;22.98;;;0.80;99.90;;;;;;5006102;28;20045;-77
2023/04/26 05:05:20;;;;;;;42.47;23.67;;;0.90;99.90;;;;;;5024165;28;20098;-76
2023/04/26 05:07:47;;;;;;;42.97;24.30;;;0.90;99.90;;;;;;5011581;28;20474;-77
2023/04/26 05:10:15;;;;;;;46.80;24.58;;;1.00;99.90;;;;;;5017022;28;20053;-77
2023/04/26 05:12:41;;;;;;;41.33;24.73;;;0.90;99.90;;;;;;5004349;28;20043;-77
2023/04/26 05:15:09;;;;;;;33.95;24.15;;;0.90;99.90;;;;;;4996081;28;20047;-77
2023/04/26 05:17:35;;;;;;;37.22;24.58;;;1.10;99.90;;;;;;5007234;28;20132;-77
2023/04/26 05:20:12;;;;;;;34.05;23.55;;;1.20;99.90;;;;;;5005302;28;20038;-77
2023/04/26 05:22:39;;;;;;;44.47;26.30;;;1.20;99.90;;;;;;4993569;28;20147;-77
2023/04/26 05:25:07;;;;;;;42.83;24.67;;;1.30;99.90;;;;;;5014919;28;20047;-77
2023/04/26 05:27:35;;;;;;;45.80;24.73;;;1.40;99.90;;;;;;4988148;28;20044;-77
2023/04/26 05:30:21;;;;;;;38.45;24.17;;;1.40;99.90;;;;;;5020862;28;20453;-77
2023/04/26 05:33:06;;;;;;;38.90;23.83;;;1.60;99.90;;;;;;5011381;28;20075;-77
2023/04/26 05:35:39;;;;;;;37.03;24.45;;;1.60;99.90;;;;;;5006523;28;20071;-77
2023/04/26 05:38:06;;;;;;;38.20;22.67;;;1.70;99.90;;;;;;4988373;28;20046;-77
2023/04/26 05:40:33;;;;;;;41.97;22.80;;;1.80;99.90;;;;;;4995040;28;20411;-77
2023/04/26 05:43:00;;;;;;;32.60;22.25;;;1.80;99.90;;;;;;5011683;28;20045;-76
2023/04/26 05:45:27;;;;;;;37.85;21.23;;;1.90;99.90;;;;;;5011806;28;20065;-76
2023/04/26 05:47:54;;;;;;;39.03;21.15;;;1.90;99.90;;;;;;5014017;28;20034;-77
2023/04/26 05:50:20;;;;;;;38.80;21.85;;;2.00;99.90;;;;;;4984311;28;20041;-76
2023/04/26 05:52:47;;;;;;;35.95;19.67;;;2.10;99.90;;;;;;5012922;28;20049;-76
2023/04/26 05:55:14;;;;;;;36.13;21.45;;;2.10;99.90;;;;;;5014988;28;20232;-76
2023/04/26 05:57:41;;;;;;;33.55;19.48;;;2.10;99.90;;;;;;5007733;28;20145;-76
2023/04/26 06:00:10;;;;;;;29.05;19.08;;;2.20;99.90;;;;;;5002268;28;20041;-76
2023/04/26 06:02:40;;;;;;;33.55;20.92;;;2.20;99.90;;;;;;5004393;28;20057;-75
2023/04/26 06:05:12;;;;;;;30.00;18.98;;;2.30;99.90;;;;;;5013650;28;20041;-75
2023/04/26 06:07:40;;;;;;;36.05;18.83;;;2.50;99.90;;;;;;5002372;28;20285;-76
2023/04/26 06:10:07;;;;;;;30.83;19.25;;;2.50;99.90;;;;;;4996359;28;20045;-75
2023/04/26 06:12:33;;;;;;;36.38;20.58;;;2.50;99.90;;;;;;5008865;28;20677;-76
2023/04/26 06:15:00;;;;;;;31.63;21.15;;;2.70;99.90;;;;;;5012744;28;20045;-76
2023/04/26 06:17:28;;;;;;;32.95;19.70;;;2.80;99.90;;;;;;4986827;28;20124;-77
2023/04/26 06:19:55;;;;;;;33.72;20.65;;;2.90;99.90;;;;;;5008921;28;20475;-76
2023/04/26 06:22:22;;;;;;;34.15;19.92;;;3.00;99.90;;;;;;5011434;28;20498;-77
2023/04/26 06:24:49;;;;;;;25.75;20.30;;;3.10;99.90;;;;;;5015333;28;20047;-77
2023/04/26 06:27:16;;;;;;;31.10;23.20;;;3.20;99.90;;;;;;4992872;28;20669;-76
2023/04/26 06:29:46;;;;;;;37.03;23.88;;;3.40;99.90;;;;;;5008412;28;20143;-75
2023/04/26 06:32:15;;;;;;;32.72;26.05;;;3.50;99.90;;;;;;5004115;28;20202;-75
2023/04/26 06:34:44;;;;;;;34.47;24.85;;;3.70;99.90;;;;;;5005419;28;20045;-78
2023/04/26 06:37:11;;;;;;;30.75;26.42;;;4.00;99.90;;;;;;5003906;28;20080;-76
2023/04/26 06:39:41;;;;;;;36.22;27.95;;;4.20;99.90;;;;;;5005371;28;20068;-75
2023/04/26 06:42:08;;;;;;;29.77;26.60;;;4.60;99.90;;;;;;5012816;28;20133;-76
2023/04/26 06:45:13;;;;;;;33.15;29.08;;;4.50;99.90;;;;;;4992966;28;20046;-76
2023/04/26 06:47:40;;;;;;;30.85;27.77;;;4.60;99.90;;;;;;4968107;28;20048;-77
2023/04/26 06:50:08;;;;;;;31.65;28.23;;;4.50;99.90;;;;;;4990519;28;20045;-74
2023/04/26 06:52:34;;;;;;;30.60;27.25;;;4.70;99.90;;;;;;5012686;28;20049;-74
2023/04/26 06:55:02;;;;;;;34.40;28.30;;;4.80;99.90;;;;;;4999699;28;20535;-76
2023/04/26 06:57:29;;;;;;;32.83;30.02;;;4.90;99.90;;;;;;5017431;28;20094;-74
2023/04/26 06:59:57;;;;;;;39.45;29.08;;;4.80;99.90;;;;;;5008229;28;20050;-75
2023/04/26 07:02:23;;;;;;;33.13;28.50;;;4.80;99.90;;;;;;5002393;28;20120;-75
2023/04/26 07:04:51;;;;;;;35.47;31.50;;;4.90;99.90;;;;;;4992043;28;20397;-75
2023/04/26 07:07:18;;;;;;;33.30;29.38;;;5.20;99.90;;;;;;5013280;28;20046;-75
2023/04/26 07:09:45;;;;;;;35.70;30.80;;;5.30;99.90;;;;;;5003425;28;20041;-76
2023/04/26 07:12:12;;;;;;;31.65;28.42;;;5.40;99.90;;;;;;5010953;28;20042;-75
2023/04/26 07:14:40;;;;;;;32.50;29.20;;;5.20;99.90;;;;;;5002960;28;20048;-76
2023/04/26 07:17:07;;;;;;;32.30;29.27;;;5.40;99.90;;;;;;5008051;28;20554;-75
2023/04/26 07:19:34;;;;;;;32.53;29.05;;;5.40;99.90;;;;;;5015307;28;20074;-77
2023/04/26 07:22:01;;;;;;;31.77;28.95;;;5.60;99.90;;;;;;5018374;28;20049;-76
2023/04/26 07:24:27;;;;;;;32.80;29.88;;;5.70;99.90;;;;;;5015697;28;20042;-76
2023/04/26 07:26:54;;;;;;;34.65;30.92;;;5.60;99.90;;;;;;5015189;28;20060;-75
2023/04/26 07:29:21;;;;;;;33.83;30.95;;;5.40;99.90;;;;;;5012936;28;20045;-75
2023/04/26 07:31:48;;;;;;;32.75;30.02;;;5.60;99.90;;;;;;5012484;28;20434;-75
2023/04/26 07:34:15;;;;;;;33.03;29.95;;;5.80;99.90;;;;;;5011242;28;20060;-76
2023/04/26 07:36:42;;;;;;;34.20;30.52;;;5.60;99.90;;;;;;5003228;28;20053;-76
2023/04/26 07:39:09;;;;;;;33.13;30.02;;;5.40;99.90;;;;;;5006719;28;20042;-75
2023/04/26 07:41:36;;;;;;;33.30;30.20;;;5.80;99.90;;;;;;5011302;28;20048;-75
2023/04/26 07:44:03;;;;;;;33.13;29.88;;;6.00;99.90;;;;;;5011949;28;20073;-75
2023/04/26 07:46:31;;;;;;;32.25;29.48;;;6.10;99.90;;;;;;5011398;28;20052;-76
2023/04/26 07:48:58;;;;;;;34.20;30.50;;;6.30;99.90;;;;;;5014376;28;20052;-75
2023/04/26 07:51:26;;;;;;;32.20;29.55;;;6.60;99.90;;;;;;5010768;28;20052;-75
2023/04/26 07:53:54;;;;;;;32.17;29.10;;;7.00;99.90;;;;;;5015769;28;20124;-75
2023/04/26 07:56:23;;;;;;;32.35;29.50;;;6.90;99.90;;;;;;5002720;28;20070;-75
2023/04/26 07:58:50;;;;;;;33.97;30.90;;;6.50;99.90;;;;;;4990105;28;20100;-75
2023/04/26 08:01:17;;;;;;;33.90;30.48;;;6.40;99.90;;;;;;5003880;28;20061;-75
2023/04/26 08:03:44;;;;;;;33.13;29.80;;;6.30;99.90;;;;;;5018217;28;20040;-74
2023/04/26 08:06:11;;;;;;;33.38;29.85;;;6.20;99.90;;;;;;5011066;28;20112;-74
2023/04/26 08:08:43;;;;;;;33.50;30.70;;;6.00;99.90;;;;;;5006660;28;20072;-74
2023/04/26 08:11:10;;;;;;;32.00;29.13;;;5.80;99.90;;;;;;5015659;28;20061;-74
2023/04/26 08:13:37;;;;;;;34.40;30.98;;;5.80;99.90;;;;;;4999242;28;20056;-76
2023/04/26 08:16:04;;;;;;;35.55;32.05;;;5.70;99.90;;;;;;5007873;28;20049;-76
2023/04/26 08:18:32;;;;;;;35.38;32.83;;;5.90;99.90;;;;;;4999251;28;20139;-76
2023/04/26 08:20:58;;;;;;;36.10;33.00;;;6.00;99.90;;;;;;5016766;28;20399;-76
2023/04/26 08:23:25;;;;;;;35.20;32.20;;;6.00;99.90;;;;;;5008357;28;20046;-75
2023/04/26 08:25:52;;;;;;;36.13;32.92;;;6.10;99.90;;;;;;5008180;28;20053;-75
2023/04/26 08:28:19;;;;;;;30.63;28.17;;;6.30;99.90;;;;;;4987230;28;20513;-76
2023/04/26 08:30:45;;;;;;;32.88;30.20;;;6.30;99.90;;;;;;5017642;28;20050;-75
2023/04/26 08:33:12;;;;;;;31.13;28.50;;;6.30;99.90;;;;;;5015122;28;20430;-75
2023/04/26 08:35:40;;;;;;;33.08;30.38;;;6.30;99.90;;;;;;4993759;28;20047;-75
2023/04/26 08:38:06;;;;;;;31.02;28.38;;;6.20;99.90;;;;;;5003668;28;20053;-75
2023/04/26 08:40:35;;;;;;;30.65;28.25;;;6.50;99.90;;;;;;5005610;28;20076;-74
2023/04/26 08:43:01;;;;;;;34.17;30.58;;;6.60;99.90;;;;;;4997776;28;20049;-75
2023/04/26 08:45:28;;;;;;;33.40;29.95;;;6.60;99.90;;;;;;5007830;28;20041;-76
2023/04/26 08:48:04;;;;;;;31.52;29.05;;;6.80;99.90;;;;;;4999555;28;20041;-75
2023/04/26 08:50:33;;;;;;;31.33;29.02;;;7.20;99.90;;;;;;4999763;28;20064;-75
2023/04/26 08:53:00;;;;;;;31.13;28.45;;;7.40;99.90;;;;;;5013178;28;20702;-75
2023/04/26 08:55:27;;;;;;;30.58;28.15;;;7.60;99.90;;;;;;5012844;28;20053;-76
2023/04/26 08:57:54;;;;;;;30.02;27.98;;;7.50;99.90;;;;;;4985160;28;20038;-74
2023/04/26 09:00:22;;;;;;;31.13;28.42;;;7.20;99.90;;;;;;5012636;28;20164;-77
2023/04/26 09:02:51;;;;;;;32.20;28.90;;;7.00;99.90;;;;;;5002308;28;20503;-77
2023/04/26 09:05:22;;;;;;;29.13;26.85;;;7.10;99.90;;;;;;5004815;28;20515;-74
2023/04/26 09:07:52;;;;;;;30.90;28.80;;;7.10;99.90;;;;;;5014438;28;20504;-76
2023/04/26 09:10:20;;;;;;;30.27;27.98;;;7.00;99.90;;;;;;5005717;28;20372;-75
2023/04/26 09:12:52;;;;;;;29.58;27.10;;;6.90;99.90;;;;;;5011625;28;20038;-75
2023/04/26 09:15:21;;;;;;;31.42;28.73;;;7.00;99.90;;;;;;5012541;28;20375;-75
2023/04/26 09:17:51;;;;;;;30.15;27.73;;;7.10;99.90;;;;;;5000980;28;20534;-75
2023/04/26 09:20:20;;;;;;;29.20;26.55;;;7.10;99.90;;;;;;5010912;28;20046;-76
2023/04/26 09:22:48;;;;;;;29.70;27.23;;;7.30;99.90;;;;;;5014915;28;20069;-76
2023/04/26 09:25:26;;;;;;;32.95;30.23;;;7.30;99.90;;;;;;5010196;28;20029;-77
2023/04/26 09:27:53;;;;;;;35.38;32.40;;;7.20;99.90;;;;;;4998936;28;20525;-77
2023/04/26 09:30:21;;;;;;;36.55;33.40;;;7.00;99.90;;;;;;5013160;28;20049;-75
2023/04/26 09:32:54;;;;;;;32.97;30.67;;;6.90;99.90;;;;;;5003340;28;20784;-76
2023/04/26 09:35:34;;;;;;;35.03;32.22;;;6.70;99.90;;;;;;5009332;28;20149;-76
2023/04/26 09:38:06;;;;;;;33.90;31.05;;;6.40;99.90;;;;;;4992896;28;20037;-73
2023/04/26 09:40:49;;;;;;;34.20;30.90;;;6.30;99.90;;;;;;5004038;28;20041;-75
2023/04/26 09:43:18;;;;;;;32.08;29.63;;;6.20;99.90;;;;;;4992720;28;20092;-74
2023/04/26 09:45:55;;;;;;;29.60;26.98;;;6.30;99.90;;;;;;5008059;28;20112;-76
2023/04/26 09:48:25;;;;;;;32.22;29.35;;;6.40;99.90;;;;;;5000987;28;20216;-75
2023/04/26 09:50:54;;;;;;;32.42;29.58;;;6.30;99.90;;;;;;5015264;28;20104;-76
2023/04/26 09:53:36;;;;;;;31.20;28.08;;;6.70;99.90;;;;;;5004676;28;20042;-74
2023/04/26 09:56:18;;;;;;;33.63;30.98;;;7.20;99.90;;;;;;4986838;28;20561;-75
2023/04/26 09:58:57;;;;;;;31.42;28.83;;;7.80;99.90;;;;;;5021403;28;20627;-75
2023/04/26 10:01:25;;;;;;;31.10;28.38;;;8.30;99.90;;;;;;5011442;28;20033;-76
2023/04/26 10:03:53;;;;;;;30.98;28.38;;;8.30;99.90;;;;;;5010633;28;20605;-74
2023/04/26 10:06:20;;;;;;;31.23;28.77;;;8.30;99.90;;;;;;4989115;28;20523;-76
2023/04/26 10:08:47;;;;;;;32.10;29.95;;;8.00;99.90;;;;;;5009936;28;20056;-74
2023/04/26 10:11:14;;;;;;;34.78;32.00;;;7.60;99.90;;;;;;4990024;28;20054;-76
2023/04/26 10:13:41;;;;;;;34.30;31.73;;;7.50;99.90;;;;;;5008174;28;20042;-74
2023/04/26 10:16:09;;;;;;;35.70;33.00;;;7.30;99.90;;;;;;5013722;28;20100;-76
2023/04/26 10:18:36;;;;;;;35.58;32.13;;;7.20;99.90;;;;;;5006107;28;20038;-74
2023/04/26 10:21:18;;;;;;;36.47;33.58;;;7.10;99.90;;;;;;5001909;28;20041;-75
2023/04/26 10:23:47;;;;;;;34.53;31.63;;;6.90;99.90;;;;;;4996218;28;20045;-76
2023/04/26 10:26:52;;;;;;;33.95;31.23;;;6.90;99.90;;;;;;5012745;28;20053;-74
2023/04/26 10:29:20;;;;;;;31.90;29.48;;;6.90;99.90;;;;;;5020144;28;20131;-73
2023/04/26 10:32:05;;;;;;;32.50;29.98;;;6.90;99.90;;;;;;5017695;28;20045;-75
2023/04/26 10:34:33;;;;;;;;;;;6.90;99.90;;;;;;4996823;28;20115;-75
2023/04/26 10:37:17;;;;;;;33.55;31.23;;;7.10;99.90;;;;;;5003988;28;20382;-75
2023/04/26 10:39:45;;;;;;;34.00;30.88;;;7.30;99.90;;;;;;5006787;28;20045;-75
2023/04/26 10:42:29;;;;;;;34.88;31.70;;;7.20;99.90;;;;;;5010376;28;20048;-74
2023/04/26 10:44:57;;;;;;;35.30;32.45;;;7.20;99.90;;;;;;4999846;28;20091;-75
2023/04/26 10:47:33;;;;;;;32.85;30.45;;;7.10;99.90;;;;;;5009563;28;20121;-76
2023/04/26 10:50:02;;;;;;;32.72;30.23;;;7.10;99.90;;;;;;5009558;28;20053;-76
2023/04/26 10:52:31;;;;;;;32.30;29.60;;;7.00;99.90;;;;;;5012257;28;20060;-76
2023/04/26 10:54:59;;;;;;;34.42;31.40;;;6.90;99.90;;;;;;5016570;28;20033;-75
2023/04/26 10:57:47;;;;;;;34.30;31.60;;;6.90;99.90;;;;;;5018216;28;20162;-74
2023/04/26 11:00:40;;;;;;;35.85;33.30;;;6.90;99.90;;;;;;4993852;28;20068;-74
2023/04/26 11:03:10;;;;;;;34.15;31.65;;;6.90;99.90;;;;;;5014785;28;20269;-75
2023/04/26 11:05:47;;;;;;;32.50;29.83;;;6.70;99.90;;;;;;5017738;28;20099;-75
2023/04/26 11:08:15;;;;;;;37.33;34.40;;;6.60;99.90;;;;;;5016282;28;20064;-75
2023/04/26 11:10:45;;;;;;;34.78;32.08;;;6.40;99.90;;;;;;5006649;28;20044;-76
2023/04/26 11:13:11;;;;;;;37.78;35.03;;;6.30;99.90;;;;;;5015731;28;20068;-77
2023/04/26 11:15:38;;;;;;;33.92;30.52;;;6.20;99.90;;;;;;4997519;28;20038;-76
2023/04/26 11:18:05;;;;;;;35.00;32.22;;;6.20;99.90;;;;;;5009429;28;20103;-75
2023/04/26 11:20:33;;;;;;;33.10;30.70;;;6.20;99.90;;;;;;5005757;28;20042;-78
2023/04/26 11:23:00;;;;;;;34.33;32.00;;;6.20;99.90;;;;;;5010103;28;20048;-77
2023/04/26 11:25:30;;;;;;;36.88;33.72;;;6.40;99.90;;;;;;5008854;28;20619;-74
2023/04/26 11:28:01;;;;;;;33.10;30.30;;;6.50;99.90;;;;;;5012024;28;20168;-75
2023/04/26 11:30:30;;;;;;;34.00;31.05;;;6.50;99.90;;;;;;4996926;28;20053;-76
2023/04/26 11:33:01;;;;;;;34.72;31.27;;;6.50;99.90;;;;;;5004028;28;20040;-75
2023/04/26 11:35:28;;;;;;;35.63;32.70;;;6.60;99.90;;;;;;5014421;28;20502;-76
2023/04/26 11:38:02;;;;;;;33.65;30.85;;;6.80;99.90;;;;;;5008988;28;20387;-76
2023/04/26 11:40:32;;;;;;;32.75;30.17;;;6.90;99.90;;;;;;5010142;28;20044;-77
2023/04/26 11:43:04;;;;;;;35.38;32.80;;;6.90;99.90;;;;;;4987666;28;20055;-75
2023/04/26 11:45:32;;;;;;;34.25;31.45;;;7.00;99.90;;;;;;5011867;28;20044;-75
2023/04/26 11:48:04;;;;;;;35.35;32.22;;;7.00;99.90;;;;;;5007635;28;20042;-75
2023/04/26 11:50:33;;;;;;;33.63;30.75;;;7.20;99.90;;;;;;5010373;28;20120;-75
2023/04/26 11:53:04;;;;;;;30.40;28.08;;;7.30;99.90;;;;;;4991416;28;20046;-76
2023/04/26 11:55:35;;;;;;;34.03;31.58;;;7.50;99.90;;;;;;5007398;28;20045;-74
2023/04/26 11:58:10;;;;;;;33.25;30.50;;;7.70;99.90;;;;;;5013549;28;20041;-76
2023/04/26 12:00:55;;;;;;;32.90;30.23;;;8.00;99.90;;;;;;4995365;28;20044;-74
2023/04/26 12:03:22;;;;;;;31.30;29.02;;;8.20;99.90;;;;;;5016585;28;20057;-75
2023/04/26 12:05:55;;;;;;;32.45;29.70;;;8.50;99.90;;;;;;4991794;28;20515;-75
2023/04/26 12:08:26;;;;;;;32.10;29.48;;;8.50;99.90;;;;;;5014348;28;20055;-76
2023/04/26 12:10:53;;;;;;;33.22;30.85;;;8.60;99.90;;;;;;5013435;28;20064;-74
2023/04/26 12:13:20;;;;;;;32.38;29.98;;;8.40;99.90;;;;;;5014735;28;20624;-76
2023/04/26 12:15:46;;;;;;;32.83;30.05;;;8.10;99.90;;;;;;5014291;28;20089;-75
2023/04/26 12:18:13;;;;;;;33.88;31.15;;;8.00;99.90;;;;;;5007927;28;20045;-75
2023/04/26 12:20:42;;;;;;;34.50;31.80;;;8.00;99.90;;;;;;5013394;28;20133;-76
2023/04/26 12:23:12;;;;;;;35.90;33.05;;;7.90;99.90;;;;;;5009823;28;20050;-76
2023/04/26 12:25:41;;;;;;;36.38;33.20;;;7.80;99.90;;;;;;4990217;28;20125;-75
2023/04/26 12:28:12;;;;;;;33.03;30.65;;;7.80;99.90;;;;;;5000252;28;20080;-75
2023/04/26 12:30:39;;;;;;;33.83;31.17;;;7.80;99.90;;;;;;5010506;28;20049;-75
2023/04/26 12:33:06;;;;;;;33.33;30.92;;;7.80;99.90;;;;;;5015142;28;20041;-74
2023/04/26 12:35:43;;;;;;;31.75;29.42;;;7.80;99.90;;;;;;4997048;28;20045;-75
2023/04/26 12:38:10;;;;;;;31.25;28.67;;;7.80;99.90;;;;;;5005993;28;20113;-74
2023/04/26 12:40:38;;;;;;;31.38;29.15;;;7.90;99.90;;;;;;5004155;28;20044;-75
2023/04/26 12:43:05;;;;;;;32.35;29.90;;;8.20;99.90;;;;;;4999916;28;20045;-76
2023/04/26 12:45:31;;;;;;;33.40;30.13;;;8.40;99.90;;;;;;5002581;28;20037;-76